sensor_id;sensor_type;location;lat;lon;timestamp;temperature;humidity
75738;DHT22;64356;45.638;13.764;2023-03-30T00:00:58;20.80;49.20
75738;DHT22;64356;45.638;13.764;2023-03-30T00:03:25;20.80;49.20
75738;DHT22;64356;45.638;13.764;2023-03-30T00:05:52;20.90;49.30
75738;DHT22;64356;45.638;13.764;2023-03-30T00:08:22;20.80;49.20
75738;DHT22;64356;45.638;13.764;2023-03-30T00:11:11;20.80;49.80
75738;DHT22;64356;45.638;13.764;2023-03-30T00:13:40;20.80;49.30
75738;DHT22;64356;45.638;13.764;2023-03-30T00:16:08;20.80;49.30
75738;DHT22;64356;45.638;13.764;2023-03-30T00:18:34;20.80;49.30
75738;DHT22;64356;45.638;13.764;2023-03-30T00:21:01;20.80;49.90
75738;DHT22;64356;45.638;13.764;2023-03-30T00:23:28;20.80;49.30
75738;DHT22;64356;45.638;13.764;2023-03-30T00:25:54;20.80;49.40
75738;DHT22;64356;45.638;13.764;2023-03-30T00:28:19;20.80;49.40
75738;DHT22;64356;45.638;13.764;2023-03-30T00:30:46;20.80;49.40
75738;DHT22;64356;45.638;13.764;2023-03-30T00:33:13;20.80;49.40
75738;DHT22;64356;45.638;13.764;2023-03-30T00:35:38;20.80;49.30
75738;DHT22;64356;45.638;13.764;2023-03-30T00:38:04;20.80;49.40
75738;DHT22;64356;45.638;13.764;2023-03-30T00:40:32;20.80;49.30
75738;DHT22;64356;45.638;13.764;2023-03-30T00:43:06;20.80;49.30
75738;DHT22;64356;45.638;13.764;2023-03-30T00:45:36;20.80;49.30
75738;DHT22;64356;45.638;13.764;2023-03-30T00:53:24;20.80;49.30
75738;DHT22;64356;45.638;13.764;2023-03-30T00:55:52;20.80;49.30
75738;DHT22;64356;45.638;13.764;2023-03-30T00:58:19;20.80;49.40
75738;DHT22;64356;45.638;13.764;2023-03-30T01:00:46;20.80;49.40
75738;DHT22;64356;45.638;13.764;2023-03-30T01:03:26;20.80;49.40
75738;DHT22;64356;45.638;13.764;2023-03-30T01:05:53;20.80;49.40
75738;DHT22;64356;45.638;13.764;2023-03-30T01:08:20;20.80;49.50
75738;DHT22;64356;45.638;13.764;2023-03-30T01:10:49;20.80;49.50
75738;DHT22;64356;45.638;13.764;2023-03-30T01:13:15;20.80;49.40
75738;DHT22;64356;45.638;13.764;2023-03-30T01:21:22;20.70;49.40
75738;DHT22;64356;45.638;13.764;2023-03-30T01:33:01;20.70;49.40
75738;DHT22;64356;45.638;13.764;2023-03-30T01:44:11;20.70;49.50
75738;DHT22;64356;45.638;13.764;2023-03-30T01:46:44;20.70;49.40
75738;DHT22;64356;45.638;13.764;2023-03-30T01:51:54;20.70;49.50
75738;DHT22;64356;45.638;13.764;2023-03-30T01:54:24;20.70;49.50
75738;DHT22;64356;45.638;13.764;2023-03-30T01:56:57;20.70;49.50
75738;DHT22;64356;45.638;13.764;2023-03-30T01:59:28;20.70;49.50
75738;DHT22;64356;45.638;13.764;2023-03-30T02:01:58;20.70;49.50
75738;DHT22;64356;45.638;13.764;2023-03-30T02:04:31;20.70;49.40
75738;DHT22;64356;45.638;13.764;2023-03-30T02:07:01;20.70;49.50
75738;DHT22;64356;45.638;13.764;2023-03-30T02:09:29;20.70;49.50
75738;DHT22;64356;45.638;13.764;2023-03-30T02:11:56;20.70;49.50
75738;DHT22;64356;45.638;13.764;2023-03-30T02:14:26;20.70;49.50
75738;DHT22;64356;45.638;13.764;2023-03-30T02:17:00;20.70;49.40
75738;DHT22;64356;45.638;13.764;2023-03-30T02:19:27;20.70;49.50
75738;DHT22;64356;45.638;13.764;2023-03-30T02:21:54;20.70;49.50
75738;DHT22;64356;45.638;13.764;2023-03-30T02:24:25;20.70;49.50
75738;DHT22;64356;45.638;13.764;2023-03-30T02:26:52;20.70;49.50
75738;DHT22;64356;45.638;13.764;2023-03-30T02:29:20;20.70;49.50
75738;DHT22;64356;45.638;13.764;2023-03-30T02:31:49;20.70;49.50
75738;DHT22;64356;45.638;13.764;2023-03-30T02:40:09;20.70;49.50
75738;DHT22;64356;45.638;13.764;2023-03-30T02:48:17;20.70;49.60
75738;DHT22;64356;45.638;13.764;2023-03-30T02:53:51;20.70;49.60
75738;DHT22;64356;45.638;13.764;2023-03-30T02:56:35;20.70;49.70
75738;DHT22;64356;45.638;13.764;2023-03-30T02:59:11;20.70;49.70
75738;DHT22;64356;45.638;13.764;2023-03-30T03:01:42;20.70;49.70
75738;DHT22;64356;45.638;13.764;2023-03-30T03:04:09;20.70;49.80
75738;DHT22;64356;45.638;13.764;2023-03-30T03:06:37;20.70;49.80
75738;DHT22;64356;45.638;13.764;2023-03-30T03:09:04;20.60;49.70
75738;DHT22;64356;45.638;13.764;2023-03-30T03:11:30;20.70;49.80
75738;DHT22;64356;45.638;13.764;2023-03-30T03:13:56;20.60;49.80
75738;DHT22;64356;45.638;13.764;2023-03-30T03:16:21;20.60;49.80
75738;DHT22;64356;45.638;13.764;2023-03-30T03:18:47;20.60;49.80
75738;DHT22;64356;45.638;13.764;2023-03-30T03:21:14;20.70;49.80
75738;DHT22;64356;45.638;13.764;2023-03-30T03:23:40;20.60;49.80
75738;DHT22;64356;45.638;13.764;2023-03-30T03:26:07;20.60;49.80
75738;DHT22;64356;45.638;13.764;2023-03-30T03:28:34;20.60;49.80
75738;DHT22;64356;45.638;13.764;2023-03-30T03:31:00;20.60;49.80
75738;DHT22;64356;45.638;13.764;2023-03-30T03:33:27;20.70;49.90
75738;DHT22;64356;45.638;13.764;2023-03-30T03:35:54;20.70;49.80
75738;DHT22;64356;45.638;13.764;2023-03-30T03:38:20;20.70;49.90
75738;DHT22;64356;45.638;13.764;2023-03-30T03:40:50;20.60;49.90
75738;DHT22;64356;45.638;13.764;2023-03-30T03:43:16;20.60;49.90
75738;DHT22;64356;45.638;13.764;2023-03-30T03:45:44;20.60;49.80
75738;DHT22;64356;45.638;13.764;2023-03-30T03:48:11;20.60;49.80
75738;DHT22;64356;45.638;13.764;2023-03-30T03:50:37;20.60;49.80
75738;DHT22;64356;45.638;13.764;2023-03-30T03:53:02;20.60;49.80
75738;DHT22;64356;45.638;13.764;2023-03-30T03:55:28;20.60;49.80
75738;DHT22;64356;45.638;13.764;2023-03-30T03:57:55;20.60;49.90
75738;DHT22;64356;45.638;13.764;2023-03-30T04:00:20;20.60;49.80
75738;DHT22;64356;45.638;13.764;2023-03-30T04:02:47;20.60;49.80
75738;DHT22;64356;45.638;13.764;2023-03-30T04:05:13;20.60;49.80
75738;DHT22;64356;45.638;13.764;2023-03-30T04:07:39;20.60;49.90
75738;DHT22;64356;45.638;13.764;2023-03-30T04:10:06;20.60;49.90
75738;DHT22;64356;45.638;13.764;2023-03-30T04:12:32;20.60;49.80
75738;DHT22;64356;45.638;13.764;2023-03-30T04:14:58;20.60;49.90
75738;DHT22;64356;45.638;13.764;2023-03-30T04:17:23;20.70;50.10
75738;DHT22;64356;45.638;13.764;2023-03-30T04:19:50;20.90;49.40
75738;DHT22;64356;45.638;13.764;2023-03-30T04:22:21;21.30;48.70
75738;DHT22;64356;45.638;13.764;2023-03-30T04:24:53;21.50;47.70
75738;DHT22;64356;45.638;13.764;2023-03-30T04:27:19;21.70;46.80
75738;DHT22;64356;45.638;13.764;2023-03-30T04:29:46;21.90;46.30
75738;DHT22;64356;45.638;13.764;2023-03-30T04:32:12;21.90;45.80
75738;DHT22;64356;45.638;13.764;2023-03-30T04:34:38;22.00;45.60
75738;DHT22;64356;45.638;13.764;2023-03-30T04:37:10;22.00;45.40
75738;DHT22;64356;45.638;13.764;2023-03-30T04:39:36;22.10;45.20
75738;DHT22;64356;45.638;13.764;2023-03-30T04:42:02;22.10;45.10
75738;DHT22;64356;45.638;13.764;2023-03-30T04:44:29;22.10;45.00
75738;DHT22;64356;45.638;13.764;2023-03-30T04:46:55;22.20;44.90
75738;DHT22;64356;45.638;13.764;2023-03-30T04:49:21;22.20;44.90
75738;DHT22;64356;45.638;13.764;2023-03-30T04:51:47;22.20;44.70
75738;DHT22;64356;45.638;13.764;2023-03-30T04:54:13;22.30;44.70
75738;DHT22;64356;45.638;13.764;2023-03-30T04:56:39;22.30;44.50
75738;DHT22;64356;45.638;13.764;2023-03-30T04:59:04;22.40;44.40
75738;DHT22;64356;45.638;13.764;2023-03-30T05:01:30;22.40;44.30
75738;DHT22;64356;45.638;13.764;2023-03-30T05:03:56;22.40;44.20
75738;DHT22;64356;45.638;13.764;2023-03-30T05:06:22;22.50;44.10
75738;DHT22;64356;45.638;13.764;2023-03-30T05:08:47;22.50;44.00
75738;DHT22;64356;45.638;13.764;2023-03-30T05:11:13;22.50;44.00
75738;DHT22;64356;45.638;13.764;2023-03-30T05:13:39;22.60;43.90
75738;DHT22;64356;45.638;13.764;2023-03-30T05:16:05;22.60;43.80
75738;DHT22;64356;45.638;13.764;2023-03-30T05:18:31;22.60;43.80
75738;DHT22;64356;45.638;13.764;2023-03-30T05:20:58;22.70;43.70
75738;DHT22;64356;45.638;13.764;2023-03-30T05:23:24;22.70;43.50
75738;DHT22;64356;45.638;13.764;2023-03-30T05:25:50;22.80;43.50
75738;DHT22;64356;45.638;13.764;2023-03-30T05:28:16;22.80;43.40
75738;DHT22;64356;45.638;13.764;2023-03-30T05:30:43;22.80;43.30
75738;DHT22;64356;45.638;13.764;2023-03-30T05:33:09;22.90;43.40
75738;DHT22;64356;45.638;13.764;2023-03-30T05:35:37;22.90;43.30
75738;DHT22;64356;45.638;13.764;2023-03-30T05:38:03;22.90;42.90
75738;DHT22;64356;45.638;13.764;2023-03-30T05:40:32;22.90;43.50
75738;DHT22;64356;45.638;13.764;2023-03-30T05:42:58;23.00;43.40
75738;DHT22;64356;45.638;13.764;2023-03-30T05:45:23;23.00;43.30
75738;DHT22;64356;45.638;13.764;2023-03-30T05:47:51;23.10;43.10
75738;DHT22;64356;45.638;13.764;2023-03-30T05:50:17;23.10;43.00
75738;DHT22;64356;45.638;13.764;2023-03-30T05:52:42;23.20;42.10
75738;DHT22;64356;45.638;13.764;2023-03-30T05:55:08;23.20;41.90
75738;DHT22;64356;45.638;13.764;2023-03-30T05:57:34;23.10;40.10
75738;DHT22;64356;45.638;13.764;2023-03-30T05:59:59;22.90;39.40
75738;DHT22;64356;45.638;13.764;2023-03-30T06:02:25;22.50;39.40
75738;DHT22;64356;45.638;13.764;2023-03-30T06:04:51;22.20;40.00
75738;DHT22;64356;45.638;13.764;2023-03-30T06:07:17;22.10;40.70
75738;DHT22;64356;45.638;13.764;2023-03-30T06:09:45;22.10;40.90
75738;DHT22;64356;45.638;13.764;2023-03-30T06:12:11;22.40;41.10
75738;DHT22;64356;45.638;13.764;2023-03-30T06:14:36;22.60;41.10
75738;DHT22;64356;45.638;13.764;2023-03-30T06:17:02;22.80;41.00
75738;DHT22;64356;45.638;13.764;2023-03-30T06:19:28;23.00;40.60
75738;DHT22;64356;45.638;13.764;2023-03-30T06:21:53;23.20;40.50
75738;DHT22;64356;45.638;13.764;2023-03-30T06:24:20;23.40;40.60
75738;DHT22;64356;45.638;13.764;2023-03-30T06:26:46;23.50;40.40
75738;DHT22;64356;45.638;13.764;2023-03-30T06:29:13;23.60;40.30
75738;DHT22;64356;45.638;13.764;2023-03-30T06:31:38;23.60;40.40
75738;DHT22;64356;45.638;13.764;2023-03-30T06:34:04;23.70;40.50
75738;DHT22;64356;45.638;13.764;2023-03-30T06:36:30;23.70;40.50
75738;DHT22;64356;45.638;13.764;2023-03-30T06:38:55;23.80;40.70
75738;DHT22;64356;45.638;13.764;2023-03-30T06:41:21;23.80;40.80
75738;DHT22;64356;45.638;13.764;2023-03-30T06:43:48;23.80;41.60
75738;DHT22;64356;45.638;13.764;2023-03-30T06:46:14;23.80;41.00
75738;DHT22;64356;45.638;13.764;2023-03-30T06:48:40;23.80;41.00
75738;DHT22;64356;45.638;13.764;2023-03-30T06:51:06;23.80;41.00
75738;DHT22;64356;45.638;13.764;2023-03-30T06:53:33;23.80;41.00
75738;DHT22;64356;45.638;13.764;2023-03-30T06:55:58;23.90;41.10
75738;DHT22;64356;45.638;13.764;2023-03-30T06:58:25;23.90;41.20
75738;DHT22;64356;45.638;13.764;2023-03-30T07:00:52;23.80;40.50
75738;DHT22;64356;45.638;13.764;2023-03-30T07:03:18;23.80;41.20
75738;DHT22;64356;45.638;13.764;2023-03-30T07:05:48;23.70;41.80
75738;DHT22;64356;45.638;13.764;2023-03-30T07:08:14;23.80;42.40
75738;DHT22;64356;45.638;13.764;2023-03-30T07:10:40;23.90;42.00
75738;DHT22;64356;45.638;13.764;2023-03-30T07:13:07;23.90;42.00
75738;DHT22;64356;45.638;13.764;2023-03-30T07:15:33;24.00;42.20
75738;DHT22;64356;45.638;13.764;2023-03-30T07:17:59;24.00;42.00
75738;DHT22;64356;45.638;13.764;2023-03-30T07:20:24;24.00;41.90
75738;DHT22;64356;45.638;13.764;2023-03-30T07:22:50;24.00;41.90
75738;DHT22;64356;45.638;13.764;2023-03-30T07:25:16;24.10;42.00
75738;DHT22;64356;45.638;13.764;2023-03-30T07:27:43;24.10;42.00
75738;DHT22;64356;45.638;13.764;2023-03-30T07:30:09;24.10;42.10
75738;DHT22;64356;45.638;13.764;2023-03-30T07:32:36;24.10;42.00
75738;DHT22;64356;45.638;13.764;2023-03-30T07:35:01;24.10;42.00
75738;DHT22;64356;45.638;13.764;2023-03-30T07:37:28;24.10;42.10
75738;DHT22;64356;45.638;13.764;2023-03-30T07:39:55;24.10;42.00
75738;DHT22;64356;45.638;13.764;2023-03-30T07:42:22;24.10;42.10
75738;DHT22;64356;45.638;13.764;2023-03-30T07:44:47;24.10;42.00
75738;DHT22;64356;45.638;13.764;2023-03-30T07:47:14;24.10;42.10
75738;DHT22;64356;45.638;13.764;2023-03-30T07:49:40;24.10;41.90
75738;DHT22;64356;45.638;13.764;2023-03-30T07:52:06;24.10;42.10
75738;DHT22;64356;45.638;13.764;2023-03-30T07:54:32;24.20;42.20
75738;DHT22;64356;45.638;13.764;2023-03-30T07:56:58;24.10;42.10
75738;DHT22;64356;45.638;13.764;2023-03-30T07:59:24;24.10;42.80
75738;DHT22;64356;45.638;13.764;2023-03-30T08:01:50;24.20;42.40
75738;DHT22;64356;45.638;13.764;2023-03-30T08:04:19;24.20;42.60
75738;DHT22;64356;45.638;13.764;2023-03-30T08:06:45;24.20;43.10
75738;DHT22;64356;45.638;13.764;2023-03-30T08:09:12;24.20;43.10
75738;DHT22;64356;45.638;13.764;2023-03-30T08:11:38;24.20;43.00
75738;DHT22;64356;45.638;13.764;2023-03-30T08:14:04;24.20;43.00
75738;DHT22;64356;45.638;13.764;2023-03-30T08:16:30;24.20;43.00
75738;DHT22;64356;45.638;13.764;2023-03-30T08:18:56;24.20;42.90
75738;DHT22;64356;45.638;13.764;2023-03-30T08:21:22;24.20;42.90
75738;DHT22;64356;45.638;13.764;2023-03-30T08:23:50;24.20;43.20
75738;DHT22;64356;45.638;13.764;2023-03-30T08:26:16;24.30;43.00
75738;DHT22;64356;45.638;13.764;2023-03-30T08:28:42;24.30;42.90
75738;DHT22;64356;45.638;13.764;2023-03-30T08:31:08;24.30;43.00
75738;DHT22;64356;45.638;13.764;2023-03-30T08:33:35;24.30;42.90
75738;DHT22;64356;45.638;13.764;2023-03-30T08:36:02;24.20;42.90
75738;DHT22;64356;45.638;13.764;2023-03-30T08:38:27;24.30;42.90
75738;DHT22;64356;45.638;13.764;2023-03-30T08:40:54;24.20;43.00
75738;DHT22;64356;45.638;13.764;2023-03-30T08:45:54;24.30;43.00
75738;DHT22;64356;45.638;13.764;2023-03-30T08:48:23;24.30;43.00
75738;DHT22;64356;45.638;13.764;2023-03-30T08:53:44;24.30;43.00
75738;DHT22;64356;45.638;13.764;2023-03-30T08:56:26;24.30;42.90
75738;DHT22;64356;45.638;13.764;2023-03-30T09:01:22;24.30;43.20
75738;DHT22;64356;45.638;13.764;2023-03-30T09:09:26;24.30;43.40
75738;DHT22;64356;45.638;13.764;2023-03-30T09:12:04;24.30;43.20
75738;DHT22;64356;45.638;13.764;2023-03-30T09:17:15;24.40;43.20
75738;DHT22;64356;45.638;13.764;2023-03-30T09:19:49;24.40;43.40
75738;DHT22;64356;45.638;13.764;2023-03-30T09:22:18;24.40;43.10
75738;DHT22;64356;45.638;13.764;2023-03-30T09:24:44;24.40;42.90
75738;DHT22;64356;45.638;13.764;2023-03-30T09:29:42;24.40;43.00
75738;DHT22;64356;45.638;13.764;2023-03-30T09:32:32;24.50;43.00
75738;DHT22;64356;45.638;13.764;2023-03-30T09:35:14;24.40;43.10
75738;DHT22;64356;45.638;13.764;2023-03-30T09:37:41;24.40;42.90
75738;DHT22;64356;45.638;13.764;2023-03-30T09:40:29;24.50;43.00
75738;DHT22;64356;45.638;13.764;2023-03-30T09:43:07;24.40;42.90
75738;DHT22;64356;45.638;13.764;2023-03-30T09:45:35;24.40;43.00
75738;DHT22;64356;45.638;13.764;2023-03-30T09:48:08;24.40;43.10
75738;DHT22;64356;45.638;13.764;2023-03-30T09:50:43;24.40;43.40
75738;DHT22;64356;45.638;13.764;2023-03-30T09:53:22;24.40;43.50
75738;DHT22;64356;45.638;13.764;2023-03-30T09:58:57;24.50;43.50
75738;DHT22;64356;45.638;13.764;2023-03-30T10:01:34;24.50;43.70
75738;DHT22;64356;45.638;13.764;2023-03-30T10:04:09;24.50;45.20
75738;DHT22;64356;45.638;13.764;2023-03-30T10:06:45;24.50;45.00
75738;DHT22;64356;45.638;13.764;2023-03-30T10:09:12;24.50;45.00
75738;DHT22;64356;45.638;13.764;2023-03-30T10:11:47;24.50;44.90
75738;DHT22;64356;45.638;13.764;2023-03-30T10:16:51;24.50;44.20
75738;DHT22;64356;45.638;13.764;2023-03-30T10:19:19;24.50;43.80
75738;DHT22;64356;45.638;13.764;2023-03-30T10:21:46;24.40;44.50
75738;DHT22;64356;45.638;13.764;2023-03-30T10:24:19;24.40;44.20
75738;DHT22;64356;45.638;13.764;2023-03-30T10:26:55;24.40;44.30
75738;DHT22;64356;45.638;13.764;2023-03-30T10:29:23;24.40;44.10
75738;DHT22;64356;45.638;13.764;2023-03-30T10:31:59;24.40;43.40
75738;DHT22;64356;45.638;13.764;2023-03-30T10:36:57;24.40;43.00
75738;DHT22;64356;45.638;13.764;2023-03-30T10:39:29;24.40;42.90
75738;DHT22;64356;45.638;13.764;2023-03-30T10:41:55;24.40;43.00
75738;DHT22;64356;45.638;13.764;2023-03-30T10:44:24;24.40;43.10
75738;DHT22;64356;45.638;13.764;2023-03-30T10:46:52;24.30;43.10
75738;DHT22;64356;45.638;13.764;2023-03-30T11:03:51;24.30;44.80
75738;DHT22;64356;45.638;13.764;2023-03-30T11:06:34;24.20;44.60
75738;DHT22;64356;45.638;13.764;2023-03-30T11:09:04;24.20;44.10
75738;DHT22;64356;45.638;13.764;2023-03-30T11:11:39;24.10;43.90
75738;DHT22;64356;45.638;13.764;2023-03-30T11:14:10;23.90;44.70
75738;DHT22;64356;45.638;13.764;2023-03-30T11:16:51;23.90;45.60
75738;DHT22;64356;45.638;13.764;2023-03-30T11:19:29;23.90;45.60
75738;DHT22;64356;45.638;13.764;2023-03-30T11:25:38;24.10;45.30
75738;DHT22;64356;45.638;13.764;2023-03-30T11:29:08;24.10;45.00
75738;DHT22;64356;45.638;13.764;2023-03-30T11:31:08;24.20;44.80
75738;DHT22;64356;45.638;13.764;2023-03-30T11:33:44;24.30;44.60
75738;DHT22;64356;45.638;13.764;2023-03-30T11:36:31;24.20;44.50
75738;DHT22;64356;45.638;13.764;2023-03-30T11:39:03;24.30;44.30
75738;DHT22;64356;45.638;13.764;2023-03-30T11:41:37;24.30;44.20
75738;DHT22;64356;45.638;13.764;2023-03-30T11:44:07;24.30;44.70
75738;DHT22;64356;45.638;13.764;2023-03-30T11:52:32;24.10;44.30
75738;DHT22;64356;45.638;13.764;2023-03-30T12:06:25;23.60;44.40
75738;DHT22;64356;45.638;13.764;2023-03-30T12:11:36;23.50;44.50
75738;DHT22;64356;45.638;13.764;2023-03-30T12:14:58;23.50;44.60
75738;DHT22;64356;45.638;13.764;2023-03-30T12:22:51;23.40;44.50
75738;DHT22;64356;45.638;13.764;2023-03-30T12:25:53;23.50;44.70
75738;DHT22;64356;45.638;13.764;2023-03-30T12:28:24;23.50;44.50
75738;DHT22;64356;45.638;13.764;2023-03-30T12:30:58;23.50;44.70
75738;DHT22;64356;45.638;13.764;2023-03-30T12:33:29;23.40;44.90
75738;DHT22;64356;45.638;13.764;2023-03-30T12:36:19;23.40;45.10
75738;DHT22;64356;45.638;13.764;2023-03-30T12:38:54;23.40;45.50
75738;DHT22;64356;45.638;13.764;2023-03-30T12:41:22;23.40;45.20
75738;DHT22;64356;45.638;13.764;2023-03-30T12:47:24;23.20;45.70
75738;DHT22;64356;45.638;13.764;2023-03-30T12:55:26;23.20;46.40
75738;DHT22;64356;45.638;13.764;2023-03-30T13:08:53;23.10;46.60
75738;DHT22;64356;45.638;13.764;2023-03-30T13:11:21;23.00;46.60
75738;DHT22;64356;45.638;13.764;2023-03-30T13:16:44;23.00;46.90
75738;DHT22;64356;45.638;13.764;2023-03-30T13:24:44;23.00;46.70
75738;DHT22;64356;45.638;13.764;2023-03-30T13:29:52;23.00;46.20
75738;DHT22;64356;45.638;13.764;2023-03-30T13:40:53;23.00;46.00
75738;DHT22;64356;45.638;13.764;2023-03-30T13:43:41;23.00;45.90
75738;DHT22;64356;45.638;13.764;2023-03-30T13:51:44;22.90;46.00
75738;DHT22;64356;45.638;13.764;2023-03-30T13:54:31;22.90;46.00
75738;DHT22;64356;45.638;13.764;2023-03-30T13:57:09;22.90;46.30
75738;DHT22;64356;45.638;13.764;2023-03-30T13:59:39;22.90;46.40
75738;DHT22;64356;45.638;13.764;2023-03-30T14:02:07;22.90;46.60
75738;DHT22;64356;45.638;13.764;2023-03-30T14:04:36;22.90;46.80
75738;DHT22;64356;45.638;13.764;2023-03-30T14:07:17;22.80;46.80
75738;DHT22;64356;45.638;13.764;2023-03-30T14:10:00;22.90;47.20
75738;DHT22;64356;45.638;13.764;2023-03-30T14:12:26;22.90;46.40
75738;DHT22;64356;45.638;13.764;2023-03-30T14:14:52;22.90;46.20
75738;DHT22;64356;45.638;13.764;2023-03-30T14:17:22;22.90;45.90
75738;DHT22;64356;45.638;13.764;2023-03-30T14:22:45;22.80;45.70
75738;DHT22;64356;45.638;13.764;2023-03-30T14:25:40;22.80;45.80
75738;DHT22;64356;45.638;13.764;2023-03-30T14:28:15;22.80;46.00
75738;DHT22;64356;45.638;13.764;2023-03-30T14:31:01;22.80;46.20
75738;DHT22;64356;45.638;13.764;2023-03-30T14:33:30;22.80;46.40
75738;DHT22;64356;45.638;13.764;2023-03-30T14:35:59;22.80;46.70
75738;DHT22;64356;45.638;13.764;2023-03-30T14:38:32;22.80;47.00
75738;DHT22;64356;45.638;13.764;2023-03-30T14:41:17;22.90;46.90
75738;DHT22;64356;45.638;13.764;2023-03-30T14:44:00;22.90;47.00
75738;DHT22;64356;45.638;13.764;2023-03-30T14:46:42;23.00;46.80
75738;DHT22;64356;45.638;13.764;2023-03-30T14:49:20;23.00;46.60
75738;DHT22;64356;45.638;13.764;2023-03-30T14:51:52;23.00;46.50
75738;DHT22;64356;45.638;13.764;2023-03-30T14:54:22;23.00;46.30
75738;DHT22;64356;45.638;13.764;2023-03-30T14:57:07;23.00;46.20
75738;DHT22;64356;45.638;13.764;2023-03-30T14:59:35;23.00;46.30
75738;DHT22;64356;45.638;13.764;2023-03-30T15:02:02;23.10;46.20
75738;DHT22;64356;45.638;13.764;2023-03-30T15:04:34;23.10;46.00
75738;DHT22;64356;45.638;13.764;2023-03-30T15:07:02;23.10;45.70
75738;DHT22;64356;45.638;13.764;2023-03-30T15:09:36;23.10;45.70
75738;DHT22;64356;45.638;13.764;2023-03-30T15:12:02;23.00;45.40
75738;DHT22;64356;45.638;13.764;2023-03-30T15:14:34;22.90;45.50
75738;DHT22;64356;45.638;13.764;2023-03-30T15:17:24;22.90;45.80
75738;DHT22;64356;45.638;13.764;2023-03-30T15:19:50;22.80;45.50
75738;DHT22;64356;45.638;13.764;2023-03-30T15:22:29;22.70;45.30
75738;DHT22;64356;45.638;13.764;2023-03-30T15:24:59;22.70;45.30
75738;DHT22;64356;45.638;13.764;2023-03-30T15:27:26;22.60;45.90
75738;DHT22;64356;45.638;13.764;2023-03-30T15:29:54;22.50;46.40
75738;DHT22;64356;45.638;13.764;2023-03-30T15:32:43;22.50;46.40
75738;DHT22;64356;45.638;13.764;2023-03-30T15:40:35;22.30;47.50
75738;DHT22;64356;45.638;13.764;2023-03-30T15:45:36;22.20;47.90
75738;DHT22;64356;45.638;13.764;2023-03-30T15:48:02;22.20;48.00
75738;DHT22;64356;45.638;13.764;2023-03-30T15:50:28;22.10;47.90
75738;DHT22;64356;45.638;13.764;2023-03-30T15:52:59;22.10;47.90
75738;DHT22;64356;45.638;13.764;2023-03-30T15:55:28;22.00;47.90
75738;DHT22;64356;45.638;13.764;2023-03-30T15:57:54;21.90;47.90
75738;DHT22;64356;45.638;13.764;2023-03-30T16:00:26;21.80;47.80
75738;DHT22;64356;45.638;13.764;2023-03-30T16:02:55;21.70;47.90
75738;DHT22;64356;45.638;13.764;2023-03-30T16:05:26;21.60;48.00
75738;DHT22;64356;45.638;13.764;2023-03-30T16:07:53;21.50;49.00
75738;DHT22;64356;45.638;13.764;2023-03-30T16:10:30;21.40;48.90
75738;DHT22;64356;45.638;13.764;2023-03-30T16:12:57;21.30;49.30
75738;DHT22;64356;45.638;13.764;2023-03-30T16:15:29;21.30;49.50
75738;DHT22;64356;45.638;13.764;2023-03-30T16:17:55;21.30;49.50
75738;DHT22;64356;45.638;13.764;2023-03-30T16:20:27;21.20;49.40
75738;DHT22;64356;45.638;13.764;2023-03-30T16:22:54;21.20;49.40
75738;DHT22;64356;45.638;13.764;2023-03-30T16:25:22;21.30;49.60
75738;DHT22;64356;45.638;13.764;2023-03-30T16:27:48;21.20;49.50
75738;DHT22;64356;45.638;13.764;2023-03-30T16:30:16;21.30;49.60
75738;DHT22;64356;45.638;13.764;2023-03-30T16:32:43;21.30;49.60
75738;DHT22;64356;45.638;13.764;2023-03-30T16:35:09;21.30;49.80
75738;DHT22;64356;45.638;13.764;2023-03-30T16:37:35;21.20;50.00
75738;DHT22;64356;45.638;13.764;2023-03-30T16:40:01;21.20;50.40
75738;DHT22;64356;45.638;13.764;2023-03-30T16:42:30;21.20;50.50
75738;DHT22;64356;45.638;13.764;2023-03-30T16:44:56;21.10;50.60
75738;DHT22;64356;45.638;13.764;2023-03-30T16:47:22;21.10;50.60
75738;DHT22;64356;45.638;13.764;2023-03-30T16:49:47;21.10;50.70
75738;DHT22;64356;45.638;13.764;2023-03-30T16:52:13;21.10;50.60
75738;DHT22;64356;45.638;13.764;2023-03-30T16:54:39;21.10;50.50
75738;DHT22;64356;45.638;13.764;2023-03-30T16:57:05;21.20;50.50
75738;DHT22;64356;45.638;13.764;2023-03-30T16:59:31;21.10;50.30
75738;DHT22;64356;45.638;13.764;2023-03-30T17:01:58;21.10;50.40
75738;DHT22;64356;45.638;13.764;2023-03-30T17:04:24;21.20;50.30
75738;DHT22;64356;45.638;13.764;2023-03-30T17:06:50;21.10;50.10
75738;DHT22;64356;45.638;13.764;2023-03-30T17:09:18;21.10;50.20
75738;DHT22;64356;45.638;13.764;2023-03-30T17:11:47;21.10;49.80
75738;DHT22;64356;45.638;13.764;2023-03-30T17:14:13;21.10;50.50
75738;DHT22;64356;45.638;13.764;2023-03-30T17:16:40;21.10;49.90
75738;DHT22;64356;45.638;13.764;2023-03-30T17:19:11;21.10;49.50
75738;DHT22;64356;45.638;13.764;2023-03-30T17:21:36;21.10;49.50
75738;DHT22;64356;45.638;13.764;2023-03-30T17:24:02;21.10;49.60
75738;DHT22;64356;45.638;13.764;2023-03-30T17:26:28;21.10;50.20
75738;DHT22;64356;45.638;13.764;2023-03-30T17:28:54;21.10;49.90
75738;DHT22;64356;45.638;13.764;2023-03-30T17:31:21;21.10;50.00
75738;DHT22;64356;45.638;13.764;2023-03-30T17:33:47;21.00;50.80
75738;DHT22;64356;45.638;13.764;2023-03-30T17:38:41;21.10;50.30
75738;DHT22;64356;45.638;13.764;2023-03-30T17:41:09;21.10;50.40
75738;DHT22;64356;45.638;13.764;2023-03-30T17:43:36;21.10;50.50
75738;DHT22;64356;45.638;13.764;2023-03-30T17:46:03;21.10;50.90
75738;DHT22;64356;45.638;13.764;2023-03-30T17:48:28;21.10;51.40
75738;DHT22;64356;45.638;13.764;2023-03-30T17:50:54;21.10;51.30
75738;DHT22;64356;45.638;13.764;2023-03-30T17:53:20;21.10;51.50
75738;DHT22;64356;45.638;13.764;2023-03-30T17:55:51;21.10;51.40
75738;DHT22;64356;45.638;13.764;2023-03-30T17:58:25;21.10;51.80
75738;DHT22;64356;45.638;13.764;2023-03-30T18:00:52;21.10;52.10
75738;DHT22;64356;45.638;13.764;2023-03-30T18:03:19;21.10;52.10
75738;DHT22;64356;45.638;13.764;2023-03-30T18:05:47;21.10;52.10
75738;DHT22;64356;45.638;13.764;2023-03-30T18:08:23;21.10;52.10
75738;DHT22;64356;45.638;13.764;2023-03-30T18:10:52;21.10;52.00
75738;DHT22;64356;45.638;13.764;2023-03-30T18:13:18;21.10;52.00
75738;DHT22;64356;45.638;13.764;2023-03-30T18:15:45;21.10;52.10
75738;DHT22;64356;45.638;13.764;2023-03-30T18:18:14;21.10;52.40
75738;DHT22;64356;45.638;13.764;2023-03-30T18:20:54;21.10;52.60
75738;DHT22;64356;45.638;13.764;2023-03-30T18:23:21;21.10;53.00